createdAt,value
2023-01-20T00:01:37.087Z,62.17
2023-01-20T00:04:05.568Z,62.80
2023-01-20T00:06:32.619Z,53.65
2023-01-20T00:09:03.387Z,62.30
2023-01-20T00:11:31.176Z,58.90
2023-01-20T00:14:01.710Z,59.90
2023-01-20T00:16:31.843Z,55.20
2023-01-20T00:18:59.014Z,55.25
2023-01-20T00:21:26.096Z,61.53
2023-01-20T00:23:53.145Z,58.88
2023-01-20T00:26:23.654Z,56.78
2023-01-20T00:28:55.088Z,55.78
2023-01-20T00:31:29.767Z,52.45
2023-01-20T00:34:00.031Z,45.90
2023-01-20T00:36:31.104Z,48.50
2023-01-20T00:38:58.281Z,50.72
2023-01-20T00:41:25.288Z,45.75
2023-01-20T00:43:52.411Z,46.45
2023-01-20T00:46:19.431Z,37.80
2023-01-20T00:48:46.367Z,40.10
2023-01-20T00:51:13.534Z,47.05
2023-01-20T00:53:40.575Z,43.63
2023-01-20T00:56:08.408Z,47.47
2023-01-20T00:58:35.781Z,50.55
2023-01-20T01:01:03.191Z,47.20
2023-01-20T01:03:31.679Z,50.03
2023-01-20T01:06:16.132Z,49.83
2023-01-20T01:08:44.323Z,47.22
2023-01-20T01:11:13.114Z,46.33
2023-01-20T01:13:40.838Z,38.35
2023-01-20T01:16:16.143Z,37.33
2023-01-20T01:18:44.084Z,42.50
2023-01-20T01:21:15.274Z,46.05
2023-01-20T01:23:44.062Z,46.10
2023-01-20T01:26:11.239Z,49.25
2023-01-20T01:28:38.829Z,46.88
2023-01-20T01:31:07.916Z,49.85
2023-01-20T01:33:35.726Z,45.90
2023-01-20T01:36:04.683Z,46.75
2023-01-20T01:38:32.164Z,44.25
2023-01-20T01:40:59.149Z,43.55
2023-01-20T01:43:33.151Z,41.25
2023-01-20T01:46:00.401Z,38.08
2023-01-20T01:48:42.605Z,35.20
2023-01-20T01:51:23.257Z,34.42
2023-01-20T01:54:00.082Z,34.33
2023-01-20T01:56:30.801Z,35.20
2023-01-20T01:59:02.817Z,37.55
2023-01-20T02:01:39.895Z,37.92
2023-01-20T02:04:13.905Z,38.00
2023-01-20T02:06:48.099Z,35.80
2023-01-20T02:09:15.102Z,34.22
2023-01-20T02:11:50.541Z,34.05
2023-01-20T02:14:26.897Z,29.70
2023-01-20T02:17:04.795Z,31.98
2023-01-20T02:20:02.075Z,29.98
2023-01-20T02:22:56.733Z,31.55
2023-01-20T02:25:54.220Z,31.75
2023-01-20T02:29:14.869Z,34.40
2023-01-20T02:32:00.828Z,33.70
2023-01-20T02:34:55.461Z,36.58
2023-01-20T02:37:30.090Z,40.08
2023-01-20T02:40:14.233Z,43.83
2023-01-20T02:43:18.953Z,40.83
2023-01-20T02:46:16.044Z,46.43
2023-01-20T02:48:51.587Z,45.47
2023-01-20T02:51:27.120Z,47.38
2023-01-20T02:54:03.108Z,52.67
2023-01-20T02:56:32.945Z,50.95
2023-01-20T02:59:08.247Z,50.08
2023-01-20T03:01:48.100Z,51.88
2023-01-20T03:04:21.590Z,54.35
2023-01-20T03:06:54.105Z,54.00
2023-01-20T03:09:30.453Z,48.78
2023-01-20T03:12:07.561Z,52.75
2023-01-20T03:14:34.604Z,51.95
2023-01-20T03:17:02.982Z,50.17
2023-01-20T03:19:29.971Z,51.42
2023-01-20T03:21:57.642Z,52.60
2023-01-20T03:24:29.939Z,50.90
2023-01-20T03:26:58.024Z,55.30
2023-01-20T03:29:25.060Z,45.13
2023-01-20T03:31:58.335Z,45.03
2023-01-20T03:34:30.424Z,47.25
2023-01-20T03:36:59.616Z,43.90
2023-01-20T03:39:27.868Z,47.47
2023-01-20T03:42:58.456Z,41.38
2023-01-20T03:45:38.982Z,43.22
2023-01-20T03:48:50.912Z,43.72
2023-01-20T03:51:29.570Z,41.58
2023-01-20T03:54:06.992Z,45.28
2023-01-20T03:56:46.884Z,45.75
2023-01-20T03:59:17.969Z,45.47
2023-01-20T04:01:45.866Z,44.10
2023-01-20T04:04:19.162Z,47.67
2023-01-20T04:06:50.046Z,45.65
2023-01-20T04:09:28.992Z,40.80
2023-01-20T04:11:56.037Z,43.03
2023-01-20T04:14:23.154Z,43.78
2023-01-20T04:16:57.137Z,40.10
2023-01-20T04:19:26.140Z,42.78
2023-01-20T04:22:07.517Z,48.22
2023-01-20T04:24:45.407Z,42.47
2023-01-20T04:27:12.450Z,41.75
2023-01-20T04:29:41.492Z,41.78
2023-01-20T04:32:12.141Z,39.17
2023-01-20T04:34:39.952Z,39.67
2023-01-20T04:37:06.979Z,38.35
2023-01-20T04:39:33.976Z,41.65
2023-01-20T04:42:00.991Z,41.15
2023-01-20T04:44:27.988Z,37.90
2023-01-20T04:46:59.652Z,41.47
2023-01-20T04:49:26.835Z,40.33
2023-01-20T04:51:53.891Z,43.17
2023-01-20T04:54:21.079Z,41.83
2023-01-20T04:56:49.108Z,45.75
2023-01-20T04:59:16.891Z,41.22
2023-01-20T05:01:43.985Z,40.28
2023-01-20T05:04:11.044Z,40.63
2023-01-20T05:06:38.225Z,39.15
2023-01-20T05:09:05.292Z,38.22
2023-01-20T05:11:32.297Z,40.63
2023-01-20T05:13:59.226Z,39.45
2023-01-20T05:16:31.850Z,39.00
2023-01-20T05:18:58.861Z,37.13
2023-01-20T05:21:25.916Z,37.85
2023-01-20T05:23:57.407Z,39.63
2023-01-20T05:26:25.901Z,37.72
2023-01-20T05:28:53.546Z,35.72
2023-01-20T05:31:20.576Z,39.95
2023-01-20T05:33:47.634Z,35.85
2023-01-20T05:36:14.700Z,39.67
2023-01-20T05:38:41.784Z,38.65
2023-01-20T05:41:10.224Z,38.17
2023-01-20T05:43:37.465Z,37.42
2023-01-20T05:46:05.964Z,35.83
2023-01-20T05:48:33.241Z,36.75
2023-01-20T05:51:00.279Z,41.10
2023-01-20T05:53:27.417Z,39.92
2023-01-20T05:56:06.528Z,42.10
2023-01-20T05:58:34.204Z,38.15
2023-01-20T06:01:11.023Z,36.15
2023-01-20T06:03:38.939Z,39.08
2023-01-20T06:06:14.192Z,41.03
2023-01-20T06:08:42.074Z,40.47
2023-01-20T06:11:09.060Z,40.47
2023-01-20T06:13:36.234Z,41.67
2023-01-20T06:16:05.662Z,39.15
2023-01-20T06:18:34.809Z,41.05
2023-01-20T06:21:01.790Z,40.97
2023-01-20T06:23:29.081Z,41.63
2023-01-20T06:26:11.590Z,45.97
2023-01-20T06:28:39.275Z,43.35
2023-01-20T06:31:13.763Z,45.47
2023-01-20T06:36:13.689Z,47.17
2023-01-20T06:38:41.004Z,46.97
2023-01-20T06:41:10.876Z,48.40
2023-01-20T06:43:41.916Z,47.95
2023-01-20T06:46:14.371Z,50.88
2023-01-20T06:48:43.401Z,54.45
2023-01-20T06:51:17.683Z,52.88
2023-01-20T06:53:45.366Z,53.33
2023-01-20T06:56:15.257Z,53.17
2023-01-20T06:58:42.931Z,53.17
2023-01-20T07:01:20.568Z,54.47
2023-01-20T07:03:47.614Z,51.88
2023-01-20T07:06:40.844Z,46.30
2023-01-20T07:09:11.439Z,49.13
2023-01-20T07:11:39.315Z,44.88
2023-01-20T07:14:07.609Z,50.58
2023-01-20T07:16:35.000Z,51.28
2023-01-20T07:19:02.111Z,50.30
2023-01-20T07:21:29.321Z,50.53
2023-01-20T07:23:59.274Z,51.55
2023-01-20T07:26:26.622Z,50.95
2023-01-20T07:28:53.705Z,49.78
2023-01-20T07:31:24.552Z,52.75
2023-01-20T07:33:52.589Z,58.63
2023-01-20T07:36:20.072Z,55.40
2023-01-20T07:38:50.056Z,58.55
2023-01-20T07:41:20.018Z,55.80
2023-01-20T07:43:50.349Z,59.40
2023-01-20T07:46:19.179Z,55.10
2023-01-20T07:48:46.328Z,56.58
2023-01-20T07:51:15.796Z,53.47
2023-01-20T07:53:49.199Z,51.92
2023-01-20T07:56:23.376Z,58.03
2023-01-20T07:58:51.410Z,63.42
2023-01-20T08:01:26.220Z,54.50
2023-01-20T08:03:54.696Z,55.20
2023-01-20T08:06:24.915Z,55.00
2023-01-20T08:08:53.226Z,57.47
2023-01-20T08:11:22.289Z,53.70
2023-01-20T08:13:49.756Z,60.95
2023-01-20T08:16:18.433Z,67.18
2023-01-20T08:18:46.851Z,60.35
2023-01-20T08:21:28.243Z,51.53
2023-01-20T08:23:57.504Z,59.08
2023-01-20T08:26:27.337Z,50.05
2023-01-20T08:28:55.792Z,53.30
2023-01-20T08:31:24.902Z,52.35
2023-01-20T08:33:55.140Z,54.13
2023-01-20T08:36:30.897Z,48.97
2023-01-20T08:39:02.618Z,47.40
2023-01-20T08:41:35.211Z,59.30
2023-01-20T08:44:05.452Z,51.42
2023-01-20T08:46:34.703Z,54.33
2023-01-20T08:49:02.123Z,99.20
2023-01-20T08:51:31.930Z,54.80
2023-01-20T08:54:00.159Z,52.72
2023-01-20T08:56:28.267Z,56.78
2023-01-20T08:58:58.175Z,58.97
2023-01-20T09:01:28.985Z,57.45
2023-01-20T09:04:06.722Z,81.32
2023-01-20T09:06:46.946Z,55.08
2023-01-20T09:09:17.880Z,52.92
2023-01-20T09:11:50.652Z,46.53
2023-01-20T09:14:24.845Z,46.45
2023-01-20T09:16:52.005Z,47.15
2023-01-20T09:19:19.197Z,132.63
2023-01-20T09:21:46.213Z,174.02
2023-01-20T09:24:13.365Z,112.95
2023-01-20T09:26:40.384Z,157.50
2023-01-20T09:29:17.987Z,110.15
2023-01-20T09:31:50.274Z,64.93
2023-01-20T09:34:23.101Z,67.97
2023-01-20T09:36:56.635Z,44.80
2023-01-20T09:39:42.695Z,101.43
2023-01-20T09:42:55.369Z,48.58
2023-01-20T09:45:38.192Z,45.85
2023-01-20T09:49:03.622Z,56.63
2023-01-20T09:52:15.469Z,51.53
2023-01-20T09:54:51.331Z,52.85
2023-01-20T09:57:24.308Z,57.20
2023-01-20T10:00:03.759Z,50.22
2023-01-20T10:02:36.557Z,45.25
2023-01-20T10:05:13.906Z,46.53
2023-01-20T10:07:58.522Z,42.00
2023-01-20T10:10:43.208Z,40.05
2023-01-20T10:13:22.119Z,37.35
2023-01-20T10:15:55.284Z,39.15
2023-01-20T10:18:43.582Z,38.33
2023-01-20T10:21:27.854Z,39.72
2023-01-20T10:24:12.271Z,38.90
2023-01-20T10:27:01.979Z,45.75
2023-01-20T10:29:38.938Z,45.28
2023-01-20T10:32:23.282Z,49.33
2023-01-20T10:34:56.759Z,37.40
2023-01-20T10:37:25.884Z,56.50
2023-01-20T10:40:08.664Z,40.30
2023-01-20T10:42:35.730Z,48.25
2023-01-20T10:45:03.867Z,40.00
2023-01-20T10:48:08.394Z,37.35
2023-01-20T10:51:34.830Z,39.15
2023-01-20T10:54:15.811Z,57.35
2023-01-20T10:56:55.769Z,43.22
2023-01-20T10:59:41.870Z,29.63
2023-01-20T11:02:35.120Z,35.75
2023-01-20T11:05:14.277Z,27.67
2023-01-20T11:07:43.459Z,23.35
2023-01-20T11:10:21.749Z,22.80
2023-01-20T11:12:54.969Z,24.63
2023-01-20T11:15:29.531Z,27.13
2023-01-20T11:20:51.364Z,23.45
2023-01-20T11:23:38.015Z,20.65
2023-01-20T11:26:32.284Z,20.05
2023-01-20T11:29:11.732Z,22.90
2023-01-20T11:31:52.770Z,24.45
2023-01-20T11:34:27.556Z,19.73
2023-01-20T11:37:06.671Z,20.15
2023-01-20T11:39:58.096Z,24.00
2023-01-20T11:42:42.344Z,23.48
2023-01-20T11:45:35.061Z,20.92
2023-01-20T11:48:16.899Z,24.42
2023-01-20T11:50:57.500Z,18.60
2023-01-20T11:53:31.908Z,21.33
2023-01-20T11:59:01.832Z,26.30
2023-01-20T12:01:49.726Z,23.52
2023-01-20T12:04:50.748Z,18.60
2023-01-20T12:07:42.027Z,22.17
2023-01-20T12:10:29.313Z,18.92
2023-01-20T12:13:09.178Z,22.42
2023-01-20T12:15:46.824Z,24.08
2023-01-20T12:18:30.942Z,15.95
2023-01-20T12:21:18.299Z,17.20
2023-01-20T12:24:03.097Z,18.77
2023-01-20T12:26:36.280Z,18.13
2023-01-20T12:29:21.629Z,18.23
2023-01-20T12:31:49.627Z,21.25
2023-01-20T12:34:27.298Z,23.42
2023-01-20T12:37:10.722Z,18.58
2023-01-20T12:39:49.899Z,16.55
2023-01-20T12:43:09.243Z,17.98
2023-01-20T12:46:10.820Z,19.63
2023-01-20T12:48:59.764Z,27.70
2023-01-20T12:52:10.275Z,22.85
2023-01-20T12:54:49.233Z,25.08
2023-01-20T12:57:41.434Z,34.35
2023-01-20T13:00:23.639Z,27.00
2023-01-20T13:02:59.529Z,23.58
2023-01-20T13:06:14.003Z,22.08
2023-01-20T13:09:03.131Z,18.25
2023-01-20T13:12:04.290Z,18.13
2023-01-20T13:14:44.235Z,18.63
2023-01-20T13:17:56.101Z,17.35
2023-01-20T13:20:27.383Z,15.95
2023-01-20T13:23:01.893Z,16.17
2023-01-20T13:25:30.365Z,16.52
2023-01-20T13:27:58.124Z,15.32
2023-01-20T13:30:37.418Z,16.42
2023-01-20T13:33:12.979Z,16.13
2023-01-20T13:35:50.086Z,14.02
2023-01-20T13:38:35.981Z,14.68
2023-01-20T13:41:06.047Z,13.75
2023-01-20T13:43:43.320Z,12.32
2023-01-20T13:46:16.992Z,14.88
2023-01-20T13:49:21.048Z,14.20
2023-01-20T13:51:48.182Z,13.52
2023-01-20T13:54:32.759Z,15.90
2023-01-20T13:57:28.707Z,20.15
2023-01-20T13:59:56.255Z,17.95
2023-01-20T14:02:29.028Z,15.02
2023-01-20T14:04:56.377Z,14.90
2023-01-20T14:07:30.471Z,12.80
2023-01-20T14:10:01.156Z,14.13
2023-01-20T14:12:28.739Z,14.73
2023-01-20T14:14:55.921Z,31.35
2023-01-20T14:17:25.027Z,20.83
2023-01-20T14:19:55.513Z,13.27
2023-01-20T14:22:31.887Z,12.18
2023-01-20T14:25:01.702Z,13.45
2023-01-20T14:27:37.317Z,13.45
2023-01-20T14:30:25.124Z,11.13
2023-01-20T14:32:53.638Z,11.75
2023-01-20T14:35:34.223Z,11.15
2023-01-20T14:38:01.979Z,11.43
2023-01-20T14:40:32.979Z,9.73
2023-01-20T14:43:12.881Z,22.60
2023-01-20T14:45:45.218Z,107.57
2023-01-20T14:48:24.755Z,14.82
2023-01-20T14:51:02.766Z,9.48
2023-01-20T14:53:29.771Z,13.55
2023-01-20T14:56:07.674Z,11.50
2023-01-20T14:58:36.423Z,8.38
2023-01-20T15:01:06.912Z,8.77
2023-01-20T15:03:34.461Z,9.85
2023-01-20T15:06:12.196Z,9.10
2023-01-20T15:08:39.175Z,9.35
2023-01-20T15:11:18.971Z,10.25
2023-01-20T15:13:55.064Z,9.30
2023-01-20T15:16:37.157Z,9.98
2023-01-20T15:19:13.632Z,9.23
2023-01-20T15:21:51.097Z,10.98
2023-01-20T15:24:31.488Z,9.05
2023-01-20T15:27:01.681Z,8.32
2023-01-20T15:29:36.737Z,8.98
2023-01-20T15:32:12.628Z,9.20
2023-01-20T15:34:39.730Z,8.82
2023-01-20T15:37:18.682Z,10.88
2023-01-20T15:39:45.941Z,10.40
2023-01-20T15:42:15.157Z,10.07
2023-01-20T15:44:42.254Z,9.65
2023-01-20T15:47:25.846Z,11.32
2023-01-20T15:49:52.964Z,12.63
2023-01-20T15:52:19.888Z,14.68
2023-01-20T15:54:46.878Z,13.65
2023-01-20T15:57:16.781Z,11.98
2023-01-20T15:59:49.568Z,12.70
2023-01-20T16:02:23.422Z,11.02
2023-01-20T16:04:50.783Z,12.23
2023-01-20T16:07:20.444Z,11.40
2023-01-20T16:09:47.629Z,17.13
2023-01-20T16:12:19.002Z,8.50
2023-01-20T16:14:46.129Z,7.15
2023-01-20T16:17:21.310Z,9.10
2023-01-20T16:19:49.927Z,8.05
2023-01-20T16:22:17.351Z,7.90
2023-01-20T16:24:44.500Z,11.07
2023-01-20T16:27:19.766Z,10.63
2023-01-20T16:29:46.820Z,10.75
2023-01-20T16:32:17.060Z,13.50
2023-01-20T16:34:45.950Z,10.13
2023-01-20T16:37:14.701Z,11.43
2023-01-20T16:39:41.756Z,10.90
2023-01-20T16:42:14.299Z,11.90
2023-01-20T16:44:41.310Z,11.63
2023-01-20T16:47:08.412Z,12.15
2023-01-20T16:49:35.741Z,47.45
2023-01-20T16:52:02.953Z,16.15
2023-01-20T16:54:29.970Z,16.17
2023-01-20T16:56:57.034Z,13.68
2023-01-20T16:59:24.053Z,14.18
2023-01-20T17:01:51.107Z,14.38
2023-01-20T17:04:18.393Z,14.88
2023-01-20T17:06:45.463Z,16.45
2023-01-20T17:09:12.836Z,18.23
2023-01-20T17:11:43.043Z,18.50
2023-01-20T17:14:11.609Z,18.20
2023-01-20T17:16:39.393Z,17.48
2023-01-20T17:19:07.069Z,17.77
2023-01-20T17:21:38.983Z,25.77
2023-01-20T17:24:06.824Z,18.92
2023-01-20T17:26:34.541Z,18.52
2023-01-20T17:29:04.956Z,20.70
2023-01-20T17:31:35.575Z,17.70
2023-01-20T17:34:04.917Z,18.08
2023-01-20T17:36:36.024Z,19.92
2023-01-20T17:39:05.148Z,18.35
2023-01-20T17:41:33.201Z,20.20
2023-01-20T17:44:00.299Z,23.95
2023-01-20T17:46:30.203Z,21.88
2023-01-20T17:48:59.761Z,21.85
2023-01-20T17:51:29.349Z,20.75
2023-01-20T17:53:58.754Z,26.88
2023-01-20T17:56:26.202Z,21.90
2023-01-20T17:58:54.056Z,23.65
2023-01-20T18:01:24.380Z,22.02
2023-01-20T18:03:54.913Z,22.65
2023-01-20T18:06:25.054Z,22.95
2023-01-20T18:08:55.762Z,22.88
2023-01-20T18:11:24.910Z,21.13
2023-01-20T18:13:57.672Z,21.77
2023-01-20T18:16:33.112Z,16.77
2023-01-20T18:19:00.804Z,16.40
2023-01-20T18:21:31.937Z,17.33
2023-01-20T18:24:01.004Z,17.13
2023-01-20T18:26:32.236Z,17.55
2023-01-20T18:29:04.608Z,19.38
2023-01-20T18:31:33.482Z,17.60
2023-01-20T18:34:05.602Z,14.68
2023-01-20T18:36:36.995Z,16.55
2023-01-20T18:39:16.428Z,13.73
2023-01-20T18:41:43.532Z,16.58
2023-01-20T18:44:11.397Z,14.18
2023-01-20T18:46:38.845Z,16.67
2023-01-20T18:49:09.501Z,17.60
2023-01-20T18:51:37.352Z,16.20
2023-01-20T18:54:12.805Z,14.50
2023-01-20T18:56:40.406Z,18.65
2023-01-20T18:59:08.271Z,19.77
2023-01-20T19:01:39.975Z,16.67
2023-01-20T19:04:11.893Z,17.52
2023-01-20T19:06:42.198Z,19.73
2023-01-20T19:09:10.332Z,21.90
2023-01-20T19:11:41.933Z,20.60
2023-01-20T19:14:14.055Z,21.45
2023-01-20T19:16:45.198Z,23.73
2023-01-20T19:19:13.532Z,27.20
2023-01-20T19:21:40.824Z,26.58
2023-01-20T19:24:19.655Z,27.65
2023-01-20T19:26:47.323Z,27.88
2023-01-20T19:29:17.173Z,28.52
2023-01-20T19:31:44.491Z,33.40
2023-01-20T19:34:11.676Z,28.55
2023-01-20T19:36:38.823Z,32.45
2023-01-20T19:39:06.469Z,35.88
2023-01-20T19:41:35.790Z,36.45
2023-01-20T19:44:06.640Z,32.15
2023-01-20T19:46:37.528Z,38.72
2023-01-20T19:49:05.145Z,41.10
2023-01-20T19:51:32.768Z,38.13
2023-01-20T19:54:01.509Z,39.45
2023-01-20T19:56:33.146Z,39.13
2023-01-20T19:59:01.133Z,37.75
2023-01-20T20:01:34.934Z,38.13
2023-01-20T20:04:12.739Z,37.50
2023-01-20T20:06:45.578Z,35.50
2023-01-20T20:09:23.293Z,39.17
2023-01-20T20:11:50.491Z,41.42
2023-01-20T20:14:21.358Z,42.72
2023-01-20T20:16:49.864Z,38.85
2023-01-20T20:19:20.074Z,35.85
2023-01-20T20:21:47.368Z,38.47
2023-01-20T20:24:16.823Z,37.90
2023-01-20T20:26:46.236Z,35.58
2023-01-20T20:29:16.920Z,41.25
2023-01-20T20:31:44.603Z,34.38
2023-01-20T20:34:16.602Z,40.13
2023-01-20T20:36:43.964Z,35.35
2023-01-20T20:39:15.314Z,38.75
2023-01-20T20:41:43.603Z,34.00
2023-01-20T20:44:11.975Z,39.60
2023-01-20T20:46:39.531Z,38.90
2023-01-20T20:49:06.565Z,34.83
2023-01-20T20:51:34.776Z,35.15
2023-01-20T20:54:03.203Z,36.58
2023-01-20T20:56:34.434Z,36.08
2023-01-20T20:59:03.615Z,35.33
2023-01-20T21:01:34.520Z,33.45
2023-01-20T21:04:03.425Z,36.92
2023-01-20T21:06:32.187Z,36.67
2023-01-20T21:09:00.376Z,36.65
2023-01-20T21:11:28.609Z,38.13
2023-01-20T21:13:55.910Z,45.35
2023-01-20T21:16:24.372Z,43.40
2023-01-20T21:18:55.925Z,38.95
2023-01-20T21:21:24.230Z,41.30
2023-01-20T21:23:54.677Z,39.25
2023-01-20T21:26:29.633Z,36.08
2023-01-20T21:28:57.748Z,37.80
2023-01-20T21:31:27.801Z,40.03
2023-01-20T21:33:58.386Z,40.22
2023-01-20T21:36:27.146Z,40.38
2023-01-20T21:38:54.496Z,38.65
2023-01-20T21:41:21.539Z,40.58
2023-01-20T21:44:07.571Z,35.58
2023-01-20T21:46:40.434Z,40.45
2023-01-20T21:49:27.423Z,39.28
2023-01-20T21:52:14.389Z,41.08
2023-01-20T21:54:42.007Z,42.22
2023-01-20T21:57:09.298Z,42.47
2023-01-20T21:59:37.011Z,39.67
2023-01-20T22:02:04.521Z,37.50
2023-01-20T22:04:32.953Z,39.58
2023-01-20T22:07:00.520Z,40.92
2023-01-20T22:09:27.566Z,39.67
2023-01-20T22:11:54.641Z,40.28
2023-01-20T22:14:21.675Z,38.67
2023-01-20T22:16:48.617Z,43.85
2023-01-20T22:19:15.977Z,39.33
2023-01-20T22:21:43.099Z,40.95
2023-01-20T22:24:10.877Z,37.25
2023-01-20T22:26:38.299Z,36.83
2023-01-20T22:29:05.451Z,41.70
2023-01-20T22:31:34.290Z,39.22
2023-01-20T22:34:04.449Z,41.50
2023-01-20T22:36:32.879Z,40.08
2023-01-20T22:39:00.279Z,38.47
2023-01-20T22:41:27.517Z,39.53
2023-01-20T22:43:55.912Z,41.35
2023-01-20T22:46:25.988Z,35.17
2023-01-20T22:48:55.266Z,38.13
2023-01-20T22:51:25.576Z,36.38
2023-01-20T22:53:55.570Z,45.78
2023-01-20T22:56:32.614Z,39.90
2023-01-20T22:59:00.775Z,41.85
2023-01-20T23:01:34.578Z,41.40
2023-01-20T23:04:05.418Z,37.85
2023-01-20T23:06:35.757Z,41.53
2023-01-20T23:09:08.160Z,38.08
2023-01-20T23:11:40.057Z,41.83
2023-01-20T23:14:10.738Z,42.67
2023-01-20T23:16:37.911Z,40.88
2023-01-20T23:19:05.365Z,44.42
2023-01-20T23:21:32.938Z,42.33
2023-01-20T23:23:59.894Z,36.60
2023-01-20T23:26:30.208Z,38.20
2023-01-20T23:28:57.442Z,39.65
2023-01-20T23:31:28.400Z,42.22
2023-01-20T23:33:55.502Z,41.63
2023-01-20T23:36:25.728Z,45.28
2023-01-20T23:38:54.784Z,41.55
2023-01-20T23:41:22.126Z,44.15
2023-01-20T23:43:49.119Z,42.55
2023-01-20T23:46:16.115Z,44.70
2023-01-20T23:48:46.183Z,44.15
2023-01-20T23:51:13.943Z,44.58
2023-01-20T23:53:41.481Z,46.42
2023-01-20T23:56:18.904Z,46.05
2023-01-20T23:58:47.330Z,43.83
